Grafton, IA (50440)

4:25 PM CST on December 05, 2016 (GMT -0600)
Neverest Acres | | Change Station

Elev 1224 ft 43.33 °N, 93.08 °W | Updated 25 seconds ago

Overcast
Overcast
34.0 °F
Feels Like 21 °F
N
28.0
Wind Variable Wind from SSE
Gusts 30.0 mph

Today
High -- | Low -- °F
--% Chance of Precip.
Yesterday
High -- | Low -- °F
Precip. -- in
Pressure 29.71 in
Visibility 5.0 miles
Clouds Overcast 500 ft
Windchill 21 °F
Dew Point 33 °F
Humidity 96%
Rainfall 0.02 in
Snow Depth Not available.
7:29 AM 4:36 PM
Waxing Crescent, 35% visible
SPECI KMCW 052222Z AUTO 15017G23KT 5SM BR OVC005 02/01 A2971 RMK AO2 PK WND 15027/2208 T00170006
Pressure 29.71 in
Visibility 5.0 miles
Clouds Overcast 500 ft
Windchill 21 °F
Dew Point 33 °F
Humidity 96%
Rainfall 0.02 in
Snow Depth Not available.
7:29 AM 4:36 PM
Waxing Crescent, 35% visible
SPECI KMCW 052222Z AUTO 15017G23KT 5SM BR OVC005 02/01 A2971 RMK AO2 PK WND 15027/2208 T00170006

10-Day Weather Forecast

Almanac

Astronomy

Dec. 05, 2016 Rise Set
Actual Time
Civil Twilight
Nautical Twilight
Astronomical Twilight
Moon
Length of Visible Light
Length of Day
Tomorrow will be .
, % of the Moon is Illuminated

Today's Extremes

State Highs State Lows

Community

WunderPhotos

Upload Photos

1,955,869 photos uploaded!

WunderBlog® & News

Nearby

Air Quality

  Air Quality AQ Index Pollutant
Not available.

Snow Depth

Station Depth Elevation

Earthquake Activity

City Distance Mag. Time & Date
Minimum magnitude displayed is 2.5.

Coastal Water Temperatures

Place Temperature

Stations

Nearby Weather Stations

Station Location Temp. Windchill Dew Point Humidity Wind Precip. Elev Updated Type
                   

Watches & Warnings

There are currently no watches in effect.